sensor_id;sensor_type;location;lat;lon;timestamp;pressure;altitude;pressure_sealevel;temperature;humidity
36062;BME280;22123;52.412;20.970;2023-01-01T00:01:42;100442.53;;;10.83;100.00
36062;BME280;22123;52.412;20.970;2023-01-01T00:04:10;100450.44;;;10.84;100.00
36062;BME280;22123;52.412;20.970;2023-01-01T00:06:36;100462.03;;;10.85;100.00
36062;BME280;22123;52.412;20.970;2023-01-01T00:09:02;100440.66;;;10.83;100.00
36062;BME280;22123;52.412;20.970;2023-01-01T00:11:27;100450.44;;;10.84;100.00
36062;BME280;22123;52.412;20.970;2023-01-01T00:13:55;100450.22;;;10.94;100.00
36062;BME280;22123;52.412;20.970;2023-01-01T00:16:21;100447.66;;;11.01;100.00
36062;BME280;22123;52.412;20.970;2023-01-01T00:18:46;100450.53;;;10.99;100.00
36062;BME280;22123;52.412;20.970;2023-01-01T00:21:12;100452.56;;;10.97;100.00
36062;BME280;22123;52.412;20.970;2023-01-01T00:23:38;100447.81;;;10.99;100.00
36062;BME280;22123;52.412;20.970;2023-01-01T00:26:11;100457.06;;;11.05;100.00
36062;BME280;22123;52.412;20.970;2023-01-01T00:28:38;100445.47;;;11.04;100.00
36062;BME280;22123;52.412;20.970;2023-01-01T00:31:07;100449.34;;;11.02;100.00
36062;BME280;22123;52.412;20.970;2023-01-01T00:33:33;100449.50;;;11.00;100.00
36062;BME280;22123;52.412;20.970;2023-01-01T00:36:08;100452.38;;;10.99;100.00
36062;BME280;22123;52.412;20.970;2023-01-01T00:38:34;100448.19;;;10.96;100.00
36062;BME280;22123;52.412;20.970;2023-01-01T00:41:00;100454.78;;;10.93;100.00
36062;BME280;22123;52.412;20.970;2023-01-01T00:43:26;100456.25;;;10.96;100.00
36062;BME280;22123;52.412;20.970;2023-01-01T00:45:51;100466.22;;;10.95;100.00
36062;BME280;22123;52.412;20.970;2023-01-01T00:48:17;100464.69;;;10.93;100.00
36062;BME280;22123;52.412;20.970;2023-01-01T00:50:43;100457.97;;;10.89;100.00
36062;BME280;22123;52.412;20.970;2023-01-01T00:53:08;100456.63;;;10.85;100.00
36062;BME280;22123;52.412;20.970;2023-01-01T00:55:34;100470.97;;;10.85;100.00
36062;BME280;22123;52.412;20.970;2023-01-01T00:58:00;100446.03;;;10.83;100.00
36062;BME280;22123;52.412;20.970;2023-01-01T01:00:25;100456.50;;;10.78;100.00
36062;BME280;22123;52.412;20.970;2023-01-01T01:02:51;100450.63;;;10.74;100.00
36062;BME280;22123;52.412;20.970;2023-01-01T01:05:18;100456.50;;;10.78;100.00
36062;BME280;22123;52.412;20.970;2023-01-01T01:07:43;100466.28;;;10.79;100.00
36062;BME280;22123;52.412;20.970;2023-01-01T01:10:09;100471.66;;;10.79;100.00
36062;BME280;22123;52.412;20.970;2023-01-01T01:12:35;100468.63;;;10.74;100.00
36062;BME280;22123;52.412;20.970;2023-01-01T01:15:01;100469.16;;;10.69;100.00
36062;BME280;22123;52.412;20.970;2023-01-01T01:17:27;100461.44;;;10.66;100.00
36062;BME280;22123;52.412;20.970;2023-01-01T01:19:52;100470.69;;;10.64;100.00
36062;BME280;22123;52.412;20.970;2023-01-01T01:22:18;100470.16;;;10.68;100.00
36062;BME280;22123;52.412;20.970;2023-01-01T01:24:44;100468.00;;;10.72;100.00
36062;BME280;22123;52.412;20.970;2023-01-01T01:27:10;100469.16;;;10.69;100.00
36062;BME280;22123;52.412;20.970;2023-01-01T01:29:36;100465.97;;;10.66;100.00
36062;BME280;22123;52.412;20.970;2023-01-01T01:32:01;100470.53;;;10.65;100.00
36062;BME280;22123;52.412;20.970;2023-01-01T01:34:27;100460.56;;;10.66;100.00
36062;BME280;22123;52.412;20.970;2023-01-01T01:36:53;100451.66;;;10.65;100.00
36062;BME280;22123;52.412;20.970;2023-01-01T01:39:24;100468.16;;;10.70;100.00
36062;BME280;22123;52.412;20.970;2023-01-01T01:41:50;100460.75;;;10.72;100.00
36062;BME280;22123;52.412;20.970;2023-01-01T01:46:59;100459.06;;;10.71;100.00
36062;BME280;22123;52.412;20.970;2023-01-01T01:49:27;100474.19;;;10.72;100.00
36062;BME280;22123;52.412;20.970;2023-01-01T01:51:55;100466.13;;;10.72;100.00
36062;BME280;22123;52.412;20.970;2023-01-01T01:54:21;100462.72;;;10.78;100.00
36062;BME280;22123;52.412;20.970;2023-01-01T01:56:50;100460.03;;;10.78;100.00
36062;BME280;22123;52.412;20.970;2023-01-01T01:59:18;100451.13;;;10.78;100.00
36062;BME280;22123;52.412;20.970;2023-01-01T02:01:45;100462.91;;;10.77;100.00
36062;BME280;22123;52.412;20.970;2023-01-01T02:04:10;100456.50;;;10.78;100.00
36062;BME280;22123;52.412;20.970;2023-01-01T02:06:36;100452.13;;;10.77;100.00
36062;BME280;22123;52.412;20.970;2023-01-01T02:09:03;100447.56;;;10.77;100.00
36062;BME280;22123;52.412;20.970;2023-01-01T02:11:30;100454.00;;;10.76;100.00
36062;BME280;22123;52.412;20.970;2023-01-01T02:13:56;100453.31;;;10.74;100.00
36062;BME280;22123;52.412;20.970;2023-01-01T02:27:08;100461.03;;;10.77;100.00
36062;BME280;22123;52.412;20.970;2023-01-01T02:34:37;100457.31;;;10.87;100.00
36062;BME280;22123;52.412;20.970;2023-01-01T02:37:04;100440.97;;;10.88;100.00
36062;BME280;22123;52.412;20.970;2023-01-01T02:39:32;100432.72;;;10.90;100.00
36062;BME280;22123;52.412;20.970;2023-01-01T02:42:00;100428.84;;;10.92;100.00
36062;BME280;22123;52.412;20.970;2023-01-01T02:44:27;100419.41;;;10.96;100.00
36062;BME280;22123;52.412;20.970;2023-01-01T02:46:54;100417.34;;;11.07;100.00
36062;BME280;22123;52.412;20.970;2023-01-01T02:49:20;100411.59;;;11.10;100.00
36062;BME280;22123;52.412;20.970;2023-01-01T02:52:06;100415.78;;;11.12;100.00
36062;BME280;22123;52.412;20.970;2023-01-01T02:57:10;100412.59;;;11.09;100.00
36062;BME280;22123;52.412;20.970;2023-01-01T02:59:43;100416.66;;;11.05;100.00
36062;BME280;22123;52.412;20.970;2023-01-01T03:02:19;100407.88;;;11.11;100.00
36062;BME280;22123;52.412;20.970;2023-01-01T03:10:29;100419.47;;;11.20;100.00
36062;BME280;22123;52.412;20.970;2023-01-01T03:13:41;100429.88;;;11.23;100.00
36062;BME280;22123;52.412;20.970;2023-01-01T03:16:08;100436.25;;;11.30;100.00
36062;BME280;22123;52.412;20.970;2023-01-01T03:18:40;100446.66;;;11.33;100.00
36062;BME280;22123;52.412;20.970;2023-01-01T03:21:08;100443.59;;;11.36;100.00
36062;BME280;22123;52.412;20.970;2023-01-01T03:23:36;100448.28;;;11.42;100.00
36062;BME280;22123;52.412;20.970;2023-01-01T03:26:03;100450.78;;;11.44;100.00
36062;BME280;22123;52.412;20.970;2023-01-01T03:28:31;100456.91;;;11.38;100.00
36062;BME280;22123;52.412;20.970;2023-01-01T03:30:59;100455.88;;;11.39;100.00
36062;BME280;22123;52.412;20.970;2023-01-01T03:38:38;100469.75;;;11.59;100.00
36062;BME280;22123;52.412;20.970;2023-01-01T03:41:16;100477.13;;;11.65;100.00
36062;BME280;22123;52.412;20.970;2023-01-01T03:43:53;100469.50;;;11.69;100.00
36062;BME280;22123;52.412;20.970;2023-01-01T03:46:22;100476.03;;;11.74;100.00
36062;BME280;22123;52.412;20.970;2023-01-01T03:48:50;100475.66;;;11.77;100.00
36062;BME280;22123;52.412;20.970;2023-01-01T03:51:18;100470.13;;;11.79;100.00
36062;BME280;22123;52.412;20.970;2023-01-01T03:53:47;100470.13;;;11.79;100.00
36062;BME280;22123;52.412;20.970;2023-01-01T03:56:19;100468.91;;;11.81;100.00
36062;BME280;22123;52.412;20.970;2023-01-01T03:58:52;100483.06;;;11.83;100.00
36062;BME280;22123;52.412;20.970;2023-01-01T04:01:21;100488.63;;;11.82;100.00
36062;BME280;22123;52.412;20.970;2023-01-01T04:03:48;100475.66;;;11.77;100.00
36062;BME280;22123;52.412;20.970;2023-01-01T04:06:14;100491.03;;;11.77;100.00
36062;BME280;22123;52.412;20.970;2023-01-01T04:08:40;100484.81;;;11.76;100.00
36062;BME280;22123;52.412;20.970;2023-01-01T04:11:16;100493.53;;;11.78;100.00
36062;BME280;22123;52.412;20.970;2023-01-01T04:13:46;100488.31;;;11.77;100.00
36062;BME280;22123;52.412;20.970;2023-01-01T04:16:11;100491.75;;;11.71;100.00
36062;BME280;22123;52.412;20.970;2023-01-01T04:18:37;100493.13;;;11.66;100.00
36062;BME280;22123;52.412;20.970;2023-01-01T04:21:03;100501.03;;;11.68;100.00
36062;BME280;22123;52.412;20.970;2023-01-01T04:23:28;100499.16;;;11.69;100.00
36062;BME280;22123;52.412;20.970;2023-01-01T04:25:54;100498.88;;;11.63;100.00
36062;BME280;22123;52.412;20.970;2023-01-01T04:28:20;100504.44;;;11.62;100.00
36062;BME280;22123;52.412;20.970;2023-01-01T04:30:45;100512.53;;;11.62;100.00
36062;BME280;22123;52.412;20.970;2023-01-01T04:33:11;100514.56;;;11.60;100.00
36062;BME280;22123;52.412;20.970;2023-01-01T04:35:37;100516.59;;;11.58;100.00
36062;BME280;22123;52.412;20.970;2023-01-01T04:38:02;100504.97;;;11.57;100.00
36062;BME280;22123;52.412;20.970;2023-01-01T04:40:28;100511.19;;;11.58;100.00
36062;BME280;22123;52.412;20.970;2023-01-01T04:42:53;100511.84;;;11.60;100.00
36062;BME280;22123;52.412;20.970;2023-01-01T04:45:19;100522.47;;;11.61;100.00
36062;BME280;22123;52.412;20.970;2023-01-01T04:47:45;100518.22;;;11.67;100.00
36062;BME280;22123;52.412;20.970;2023-01-01T04:50:10;100517.22;;;11.68;100.00
36062;BME280;22123;52.412;20.970;2023-01-01T04:52:36;100515.16;;;11.70;100.00
36062;BME280;22123;52.412;20.970;2023-01-01T04:55:02;100521.41;;;11.71;100.00
36062;BME280;22123;52.412;20.970;2023-01-01T04:57:28;100527.28;;;11.74;100.00
36062;BME280;22123;52.412;20.970;2023-01-01T04:59:54;100525.44;;;11.75;100.00
36062;BME280;22123;52.412;20.970;2023-01-01T05:02:19;100535.69;;;11.79;100.00
36062;BME280;22123;52.412;20.970;2023-01-01T05:04:45;100518.00;;;11.77;100.00
36062;BME280;22123;52.412;20.970;2023-01-01T05:07:11;100519.00;;;11.76;100.00
36062;BME280;22123;52.412;20.970;2023-01-01T05:09:36;100526.63;;;11.72;100.00
36062;BME280;22123;52.412;20.970;2023-01-01T05:12:02;100525.63;;;11.73;100.00
36062;BME280;22123;52.412;20.970;2023-01-01T05:14:27;100519.53;;;11.71;100.00
36062;BME280;22123;52.412;20.970;2023-01-01T05:16:53;100522.91;;;11.73;100.00
36062;BME280;22123;52.412;20.970;2023-01-01T05:19:19;100518.00;;;11.77;100.00
36062;BME280;22123;52.412;20.970;2023-01-01T05:21:44;100524.22;;;11.77;100.00
36062;BME280;22123;52.412;20.970;2023-01-01T05:24:10;100528.41;;;11.80;100.00
36062;BME280;22123;52.412;20.970;2023-01-01T05:26:37;100518.13;;;11.83;100.00
36062;BME280;22123;52.412;20.970;2023-01-01T05:29:03;100521.00;;;11.82;100.00
36062;BME280;22123;52.412;20.970;2023-01-01T05:31:30;100527.59;;;11.79;100.00
36062;BME280;22123;52.412;20.970;2023-01-01T05:33:56;100526.09;;;11.77;100.00
36062;BME280;22123;52.412;20.970;2023-01-01T05:36:23;100530.50;;;11.70;100.00
36062;BME280;22123;52.412;20.970;2023-01-01T05:38:49;100534.41;;;11.67;100.00
36062;BME280;22123;52.412;20.970;2023-01-01T05:41:15;100544.53;;;11.65;100.00
36062;BME280;22123;52.412;20.970;2023-01-01T05:43:41;100543.03;;;11.62;100.00
36062;BME280;22123;52.412;20.970;2023-01-01T05:46:09;100546.72;;;11.61;100.00
36062;BME280;22123;52.412;20.970;2023-01-01T05:48:35;100555.00;;;11.60;100.00
36062;BME280;22123;52.412;20.970;2023-01-01T05:51:01;100554.16;;;11.59;100.00
36062;BME280;22123;52.412;20.970;2023-01-01T05:53:27;100558.56;;;11.60;100.00
36062;BME280;22123;52.412;20.970;2023-01-01T05:55:53;100558.38;;;11.62;100.00
36062;BME280;22123;52.412;20.970;2023-01-01T05:58:18;100553.34;;;11.59;100.00
36062;BME280;22123;52.412;20.970;2023-01-01T06:00:44;100558.41;;;11.54;100.00
36062;BME280;22123;52.412;20.970;2023-01-01T06:03:10;100559.94;;;11.48;100.00
36062;BME280;22123;52.412;20.970;2023-01-01T06:05:38;100558.63;;;11.44;100.00
36062;BME280;22123;52.412;20.970;2023-01-01T06:08:03;100558.44;;;11.45;100.00
36062;BME280;22123;52.412;20.970;2023-01-01T06:10:29;100566.03;;;11.50;100.00
36062;BME280;22123;52.412;20.970;2023-01-01T06:12:54;100563.97;;;11.52;100.00
36062;BME280;22123;52.412;20.970;2023-01-01T06:15:20;100568.00;;;11.56;100.00
36062;BME280;22123;52.412;20.970;2023-01-01T06:17:46;100570.53;;;11.58;100.00
36062;BME280;22123;52.412;20.970;2023-01-01T06:20:11;100569.50;;;11.59;100.00
36062;BME280;22123;52.412;20.970;2023-01-01T06:22:37;100576.38;;;11.61;100.00
36062;BME280;22123;52.412;20.970;2023-01-01T06:25:03;100572.69;;;11.62;100.00
36062;BME280;22123;52.412;20.970;2023-01-01T06:27:28;100575.91;;;11.58;100.00
36062;BME280;22123;52.412;20.970;2023-01-01T06:29:54;100573.25;;;11.49;100.00
36062;BME280;22123;52.412;20.970;2023-01-01T06:32:20;100577.66;;;11.42;100.00
36062;BME280;22123;52.412;20.970;2023-01-01T06:34:45;100579.03;;;11.38;100.00
36062;BME280;22123;52.412;20.970;2023-01-01T06:37:11;100592.66;;;11.37;100.00
36062;BME280;22123;52.412;20.970;2023-01-01T06:39:36;100582.06;;;11.35;100.00
36062;BME280;22123;52.412;20.970;2023-01-01T06:42:02;100583.94;;;11.35;100.00
36062;BME280;22123;52.412;20.970;2023-01-01T06:44:28;100585.81;;;11.34;100.00
36062;BME280;22123;52.412;20.970;2023-01-01T06:46:53;100585.66;;;11.27;100.00
36062;BME280;22123;52.412;20.970;2023-01-01T06:49:19;100605.03;;;11.23;100.00
36062;BME280;22123;52.412;20.970;2023-01-01T06:51:45;100607.22;;;11.19;100.00
36062;BME280;22123;52.412;20.970;2023-01-01T06:54:10;100602.53;;;11.13;100.00
36062;BME280;22123;52.412;20.970;2023-01-01T06:56:36;100609.28;;;11.09;100.00
36062;BME280;22123;52.412;20.970;2023-01-01T06:59:02;100603.75;;;11.02;100.00
36062;BME280;22123;52.412;20.970;2023-01-01T07:01:29;100617.69;;;10.98;100.00
36062;BME280;22123;52.412;20.970;2023-01-01T07:03:59;100604.75;;;10.93;100.00
36062;BME280;22123;52.412;20.970;2023-01-01T07:06:25;100611.16;;;10.92;100.00
36062;BME280;22123;52.412;20.970;2023-01-01T07:08:51;100614.53;;;10.86;100.00
36062;BME280;22123;52.412;20.970;2023-01-01T07:11:17;100618.22;;;10.85;100.00
36062;BME280;22123;52.412;20.970;2023-01-01T07:13:43;100617.09;;;10.79;100.00
36062;BME280;22123;52.412;20.970;2023-01-01T07:16:09;100627.84;;;10.79;100.00
36062;BME280;22123;52.412;20.970;2023-01-01T07:18:35;100633.25;;;10.79;100.00
36062;BME280;22123;52.412;20.970;2023-01-01T07:21:01;100635.59;;;10.82;100.00
36062;BME280;22123;52.412;20.970;2023-01-01T07:23:28;100645.84;;;10.87;100.00
36062;BME280;22123;52.412;20.970;2023-01-01T07:25:54;100639.28;;;10.89;100.00
36062;BME280;22123;52.412;20.970;2023-01-01T07:28:20;100645.50;;;10.90;100.00
36062;BME280;22123;52.412;20.970;2023-01-01T07:30:47;100655.44;;;10.89;100.00
36062;BME280;22123;52.412;20.970;2023-01-01T07:33:14;100655.28;;;10.91;100.00
36062;BME280;22123;52.412;20.970;2023-01-01T07:35:40;100664.69;;;10.95;100.00
36062;BME280;22123;52.412;20.970;2023-01-01T07:38:06;100659.16;;;10.96;100.00
36062;BME280;22123;52.412;20.970;2023-01-01T07:40:31;100675.78;;;11.00;100.00
36062;BME280;22123;52.412;20.970;2023-01-01T07:42:57;100661.47;;;11.08;100.00
36062;BME280;22123;52.412;20.970;2023-01-01T07:45:23;100657.25;;;11.13;100.00
36062;BME280;22123;52.412;20.970;2023-01-01T07:47:49;100662.97;;;11.19;100.00
36062;BME280;22123;52.412;20.970;2023-01-01T07:50:16;100666.84;;;11.24;100.00
36062;BME280;22123;52.412;20.970;2023-01-01T07:52:42;100668.84;;;11.30;100.00
36062;BME280;22123;52.412;20.970;2023-01-01T07:55:13;100666.47;;;11.36;100.00
36062;BME280;22123;52.412;20.970;2023-01-01T07:57:40;100673.69;;;11.43;100.00
36062;BME280;22123;52.412;20.970;2023-01-01T08:00:06;100679.06;;;11.52;100.00
36062;BME280;22123;52.412;20.970;2023-01-01T08:02:32;100669.28;;;11.59;100.00
36062;BME280;22123;52.412;20.970;2023-01-01T08:04:57;100679.84;;;11.69;100.00
36062;BME280;22123;52.412;20.970;2023-01-01T08:07:23;100688.09;;;11.75;100.00
36062;BME280;22123;52.412;20.970;2023-01-01T08:09:49;100682.69;;;11.75;100.00
36062;BME280;22123;52.412;20.970;2023-01-01T08:12:14;100688.78;;;11.69;100.00
36062;BME280;22123;52.412;20.970;2023-01-01T08:14:40;100691.47;;;11.69;100.00
36062;BME280;22123;52.412;20.970;2023-01-01T08:17:06;100693.00;;;11.72;100.00
36062;BME280;22123;52.412;20.970;2023-01-01T08:19:31;100693.31;;;11.77;100.00
36062;BME280;22123;52.412;20.970;2023-01-01T08:21:57;100694.09;;;11.86;100.00
36062;BME280;22123;52.412;20.970;2023-01-01T08:24:22;100698.50;;;11.95;100.00
36062;BME280;22123;52.412;20.970;2023-01-01T08:26:48;100703.47;;;12.06;100.00
36062;BME280;22123;52.412;20.970;2023-01-01T08:29:14;100690.75;;;12.23;100.00
36062;BME280;22123;52.412;20.970;2023-01-01T08:31:40;100688.81;;;12.40;100.00
36062;BME280;22123;52.412;20.970;2023-01-01T08:34:06;100700.66;;;12.54;100.00
36062;BME280;22123;52.412;20.970;2023-01-01T08:36:31;100708.53;;;12.64;100.00
36062;BME280;22123;52.412;20.970;2023-01-01T08:39:05;100701.72;;;12.76;100.00
36062;BME280;22123;52.412;20.970;2023-01-01T08:41:31;100707.03;;;12.84;100.00
36062;BME280;22123;52.412;20.970;2023-01-01T08:43:57;100700.66;;;13.00;100.00
36062;BME280;22123;52.412;20.970;2023-01-01T08:46:23;100705.44;;;13.13;100.00
36062;BME280;22123;52.412;20.970;2023-01-01T08:48:48;100703.25;;;13.32;100.00
36062;BME280;22123;52.412;20.970;2023-01-01T08:51:14;100702.56;;;13.53;100.00
36062;BME280;22123;52.412;20.970;2023-01-01T08:53:40;100709.28;;;13.72;100.00
36062;BME280;22123;52.412;20.970;2023-01-01T08:56:06;100711.97;;;13.87;100.00
36062;BME280;22123;52.412;20.970;2023-01-01T08:58:34;100711.19;;;14.08;100.00
36062;BME280;22123;52.412;20.970;2023-01-01T09:00:59;100714.97;;;14.29;100.00
36062;BME280;22123;52.412;20.970;2023-01-01T09:03:25;100721.41;;;14.42;100.00
36062;BME280;22123;52.412;20.970;2023-01-01T09:05:51;100720.41;;;14.65;100.00
36062;BME280;22123;52.412;20.970;2023-01-01T09:08:17;100711.03;;;14.89;100.00
36062;BME280;22123;52.412;20.970;2023-01-01T09:10:42;100717.03;;;15.06;100.00
36062;BME280;22123;52.412;20.970;2023-01-01T09:13:12;100722.50;;;15.13;100.00
36062;BME280;22123;52.412;20.970;2023-01-01T09:15:38;100698.56;;;15.17;100.00
36062;BME280;22123;52.412;20.970;2023-01-01T09:18:03;100695.25;;;15.21;100.00
36062;BME280;22123;52.412;20.970;2023-01-01T09:20:29;100707.63;;;15.30;100.00
36062;BME280;22123;52.412;20.970;2023-01-01T09:22:55;100706.38;;;15.33;100.00
36062;BME280;22123;52.412;20.970;2023-01-01T09:25:20;100705.34;;;15.34;100.00
36062;BME280;22123;52.412;20.970;2023-01-01T09:27:46;100714.13;;;15.36;100.00
36062;BME280;22123;52.412;20.970;2023-01-01T09:30:12;100710.81;;;15.41;100.00
36062;BME280;22123;52.412;20.970;2023-01-01T09:32:37;100718.38;;;15.45;100.00
36062;BME280;22123;52.412;20.970;2023-01-01T09:35:03;100706.53;;;15.53;100.00
36062;BME280;22123;52.412;20.970;2023-01-01T09:37:29;100731.63;;;15.62;100.00
36062;BME280;22123;52.412;20.970;2023-01-01T09:39:55;100717.66;;;15.65;100.00
36062;BME280;22123;52.412;20.970;2023-01-01T09:45:07;100709.91;;;15.62;100.00
36062;BME280;22123;52.412;20.970;2023-01-01T09:47:39;100729.31;;;15.59;100.00
36062;BME280;22123;52.412;20.970;2023-01-01T09:50:09;100718.66;;;15.57;100.00
36062;BME280;22123;52.412;20.970;2023-01-01T09:52:42;100728.28;;;15.60;100.00
36062;BME280;22123;52.412;20.970;2023-01-01T09:55:10;100717.84;;;15.63;100.00
36062;BME280;22123;52.412;20.970;2023-01-01T09:57:38;100707.47;;;15.67;100.00
36062;BME280;22123;52.412;20.970;2023-01-01T10:00:14;100701.63;;;15.70;100.00
36062;BME280;22123;52.412;20.970;2023-01-01T10:02:43;100714.78;;;15.73;100.00
36062;BME280;22123;52.412;20.970;2023-01-01T10:11:02;100713.44;;;15.91;100.00
36062;BME280;22123;52.412;20.970;2023-01-01T10:18:59;100720.91;;;15.82;100.00
36062;BME280;22123;52.412;20.970;2023-01-01T10:21:26;100709.16;;;15.75;100.00
36062;BME280;22123;52.412;20.970;2023-01-01T10:23:55;100720.63;;;15.77;100.00
36062;BME280;22123;52.412;20.970;2023-01-01T10:26:23;100708.59;;;15.79;100.00
36062;BME280;22123;52.412;20.970;2023-01-01T10:31:20;100715.72;;;15.87;100.00
36062;BME280;22123;52.412;20.970;2023-01-01T10:33:50;100709.50;;;16.00;100.00
36062;BME280;22123;52.412;20.970;2023-01-01T10:36:16;100709.34;;;16.08;100.00
36062;BME280;22123;52.412;20.970;2023-01-01T10:38:44;100696.44;;;16.17;100.00
36062;BME280;22123;52.412;20.970;2023-01-01T10:41:10;100693.75;;;16.30;100.00
36062;BME280;22123;52.412;20.970;2023-01-01T10:43:36;100689.41;;;16.43;100.00
36062;BME280;22123;52.412;20.970;2023-01-01T10:46:02;100692.34;;;16.55;100.00
36062;BME280;22123;52.412;20.970;2023-01-01T10:48:29;100694.03;;;16.62;100.00
36062;BME280;22123;52.412;20.970;2023-01-01T10:50:55;100677.94;;;16.67;100.00
36062;BME280;22123;52.412;20.970;2023-01-01T10:53:29;100682.75;;;16.65;100.00
36062;BME280;22123;52.412;20.970;2023-01-01T10:58:25;100681.50;;;16.61;100.00
36062;BME280;22123;52.412;20.970;2023-01-01T11:00:58;100681.50;;;16.68;100.00
36062;BME280;22123;52.412;20.970;2023-01-01T11:03:23;100681.09;;;16.78;100.00
36062;BME280;22123;52.412;20.970;2023-01-01T11:06:03;100677.31;;;16.85;100.00
36062;BME280;22123;52.412;20.970;2023-01-01T11:08:29;100666.28;;;16.94;100.00
36062;BME280;22123;52.412;20.970;2023-01-01T11:10:59;100669.41;;;16.97;100.00
36062;BME280;22123;52.412;20.970;2023-01-01T11:13:25;100664.41;;;17.01;100.00
36062;BME280;22123;52.412;20.970;2023-01-01T11:15:52;100667.34;;;17.06;100.00
36062;BME280;22123;52.412;20.970;2023-01-01T11:18:22;100662.28;;;17.10;100.00
36062;BME280;22123;52.412;20.970;2023-01-01T11:20:57;100667.72;;;17.10;100.00
36062;BME280;22123;52.412;20.970;2023-01-01T11:23:33;100654.97;;;17.03;100.00
36062;BME280;22123;52.412;20.970;2023-01-01T11:28:30;100640.09;;;16.73;100.00
36062;BME280;22123;52.412;20.970;2023-01-01T11:31:17;100623.78;;;16.59;100.00
36062;BME280;22123;52.412;20.970;2023-01-01T11:33:52;100652.66;;;16.67;100.00
36062;BME280;22123;52.412;20.970;2023-01-01T11:36:30;100650.34;;;16.57;100.00
36062;BME280;22123;52.412;20.970;2023-01-01T11:39:24;100666.22;;;16.60;100.00
36062;BME280;22123;52.412;20.970;2023-01-01T11:41:56;100639.22;;;16.39;100.00
36062;BME280;22123;52.412;20.970;2023-01-01T11:44:37;100672.91;;;16.58;100.00
36062;BME280;22123;52.412;20.970;2023-01-01T11:47:05;100677.94;;;16.61;100.00
36062;BME280;22123;52.412;20.970;2023-01-01T11:49:32;100661.38;;;16.42;100.00
36062;BME280;22123;52.412;20.970;2023-01-01T11:51:59;100685.69;;;16.71;100.00
36062;BME280;22123;52.412;20.970;2023-01-01T11:54:29;100694.88;;;16.76;100.00
36062;BME280;22123;52.412;20.970;2023-01-01T11:57:06;100658.50;;;16.57;100.00
36062;BME280;22123;52.412;20.970;2023-01-01T11:59:46;100682.75;;;16.72;100.00
36062;BME280;22123;52.412;20.970;2023-01-01T12:02:19;100650.31;;;16.50;100.00
36062;BME280;22123;52.412;20.970;2023-01-01T12:05:07;100646.34;;;16.53;100.00
36062;BME280;22123;52.412;20.970;2023-01-01T12:07:37;100659.53;;;16.69;100.00
36062;BME280;22123;52.412;20.970;2023-01-01T12:10:13;100681.97;;;16.92;100.00
36062;BME280;22123;52.412;20.970;2023-01-01T12:12:59;100641.34;;;16.77;100.00
36062;BME280;22123;52.412;20.970;2023-01-01T12:15:46;100681.34;;;17.10;100.00
36062;BME280;22123;52.412;20.970;2023-01-01T12:21:21;100643.84;;;16.78;100.00
36062;BME280;22123;52.412;20.970;2023-01-01T12:23:49;100653.88;;;16.71;100.00
36062;BME280;22123;52.412;20.970;2023-01-01T12:29:40;100663.31;;;16.62;100.00
36062;BME280;22123;52.412;20.970;2023-01-01T12:40:34;100681.47;;;16.55;100.00
36062;BME280;22123;52.412;20.970;2023-01-01T12:48:15;100688.53;;;16.42;100.00
36062;BME280;22123;52.412;20.970;2023-01-01T12:51:01;100668.69;;;16.28;100.00
36062;BME280;22123;52.412;20.970;2023-01-01T12:59:31;100689.78;;;16.33;100.00
36062;BME280;22123;52.412;20.970;2023-01-01T13:02:01;100694.59;;;16.31;100.00
36062;BME280;22123;52.412;20.970;2023-01-01T13:04:28;100705.22;;;16.26;100.00
36062;BME280;22123;52.412;20.970;2023-01-01T13:07:02;100701.66;;;16.19;100.00
36062;BME280;22123;52.412;20.970;2023-01-01T13:09:42;100661.63;;;15.86;100.00
36062;BME280;22123;52.412;20.970;2023-01-01T13:12:16;100672.94;;;15.89;100.00
36062;BME280;22123;52.412;20.970;2023-01-01T13:14:46;100697.19;;;15.97;100.00
36062;BME280;22123;52.412;20.970;2023-01-01T13:17:30;100675.75;;;15.74;100.00
36062;BME280;22123;52.412;20.970;2023-01-01T13:20:22;100668.59;;;15.67;100.00
36062;BME280;22123;52.412;20.970;2023-01-01T13:22:49;100669.16;;;15.55;100.00
36062;BME280;22123;52.412;20.970;2023-01-01T13:35:40;100678.59;;;15.59;100.00
36062;BME280;22123;52.412;20.970;2023-01-01T13:39:08;100719.19;;;15.74;100.00
36062;BME280;22123;52.412;20.970;2023-01-01T13:55:01;100765.84;;;15.35;100.00
36062;BME280;22123;52.412;20.970;2023-01-01T14:02:39;100773.00;;;15.14;100.00
36062;BME280;22123;52.412;20.970;2023-01-01T14:05:21;100769.66;;;15.12;100.00
36062;BME280;22123;52.412;20.970;2023-01-01T14:07:51;100756.16;;;14.97;100.00
36062;BME280;22123;52.412;20.970;2023-01-01T14:10:28;100774.53;;;15.02;100.00
36062;BME280;22123;52.412;20.970;2023-01-01T14:15:35;100772.09;;;14.85;100.00
36062;BME280;22123;52.412;20.970;2023-01-01T14:18:04;100764.28;;;14.75;100.00
36062;BME280;22123;52.412;20.970;2023-01-01T14:20:50;100805.91;;;14.89;100.00
36062;BME280;22123;52.412;20.970;2023-01-01T14:25:56;100778.31;;;14.64;100.00
36062;BME280;22123;52.412;20.970;2023-01-01T14:28:29;100783.44;;;14.74;100.00
36062;BME280;22123;52.412;20.970;2023-01-01T14:30:56;100793.25;;;14.75;100.00